Time;durP1;ratioP1;P1;durP2;ratioP2;P2;SDS_P1;SDS_P2;PMS_P1;PMS_P2;Temp;Humidity;BMP_temperature;BMP_pressure;BME280_temperature;BME280_humidity;BME280_pressure;Samples;Min_cycle;Max_cycle;Signal;HPM_P1;HPM_P2
2022/01/29 00:01:25;;;;;;;16.90;7.88;;;2.60;99.90;;;;;;5027321;28;20086;-68
2022/01/29 00:03:50;;;;;;;14.13;7.10;;;2.60;99.90;;;;;;5021404;28;20934;-68
2022/01/29 00:06:16;;;;;;;13.55;7.28;;;2.60;99.90;;;;;;5023379;28;20032;-68
2022/01/29 00:08:45;;;;;;;14.20;7.00;;;2.60;99.90;;;;;;5024006;28;20113;-68
2022/01/29 00:11:17;;;;;;;16.63;7.75;;;2.60;99.90;;;;;;5028151;28;20449;-68
2022/01/29 00:13:43;;;;;;;13.75;6.70;;;2.60;99.90;;;;;;5039205;28;20104;-70
2022/01/29 00:16:09;;;;;;;13.02;6.25;;;2.60;99.90;;;;;;5028522;28;20414;-70
2022/01/29 00:18:35;;;;;;;15.38;6.82;;;2.60;99.90;;;;;;5025290;28;20088;-70
2022/01/29 00:21:02;;;;;;;13.88;6.80;;;2.60;99.90;;;;;;5025218;28;20120;-68
2022/01/29 00:23:30;;;;;;;13.68;6.90;;;2.50;99.90;;;;;;5038571;28;20045;-69
2022/01/29 00:26:10;;;;;;;12.25;5.97;;;2.60;99.90;;;;;;5026159;28;20025;-69
2022/01/29 00:28:35;;;;;;;15.30;6.35;;;2.60;99.90;;;;;;5023680;28;20025;-69
2022/01/29 00:31:03;;;;;;;12.00;5.85;;;2.50;99.90;;;;;;5040492;28;20029;-69
2022/01/29 00:33:29;;;;;;;10.77;5.80;;;2.60;99.90;;;;;;5027515;28;20072;-68
2022/01/29 00:36:00;;;;;;;10.98;5.55;;;2.50;99.90;;;;;;5024043;28;20053;-69
2022/01/29 00:38:29;;;;;;;14.70;6.90;;;2.50;99.90;;;;;;5038445;28;20099;-69
2022/01/29 00:40:58;;;;;;;12.20;6.35;;;2.50;99.90;;;;;;5024716;28;20022;-69
2022/01/29 00:43:23;;;;;;;14.18;6.28;;;2.50;99.90;;;;;;5026712;28;20064;-69
2022/01/29 00:45:49;;;;;;;11.52;6.07;;;2.50;99.90;;;;;;5026605;28;20056;-69
2022/01/29 00:48:18;;;;;;;12.40;6.60;;;2.50;99.90;;;;;;5020542;28;20025;-69
2022/01/29 00:50:47;;;;;;;12.55;5.93;;;2.50;99.90;;;;;;5026389;28;20348;-69
2022/01/29 00:53:13;;;;;;;10.27;4.93;;;2.50;99.90;;;;;;5024811;28;20032;-69
2022/01/29 00:55:45;;;;;;;11.98;6.03;;;2.50;99.90;;;;;;5022563;28;20449;-69
2022/01/29 00:58:13;;;;;;;13.95;6.20;;;2.50;99.90;;;;;;5023094;28;20022;-69
2022/01/29 01:00:39;;;;;;;11.18;5.65;;;2.50;99.90;;;;;;5021495;28;20077;-69
2022/01/29 01:03:05;;;;;;;14.48;5.55;;;2.50;99.90;;;;;;5025657;28;20057;-69
2022/01/29 01:05:33;;;;;;;9.32;4.63;;;2.40;99.90;;;;;;5024279;28;20045;-70
2022/01/29 01:07:59;;;;;;;8.32;4.13;;;2.50;99.90;;;;;;5038253;28;20083;-69
2022/01/29 01:10:28;;;;;;;8.88;4.05;;;2.50;99.90;;;;;;5024608;28;20033;-69
2022/01/29 01:12:56;;;;;;;7.03;3.65;;;2.50;99.90;;;;;;5023768;28;20029;-69
2022/01/29 01:15:25;;;;;;;7.78;3.58;;;2.40;99.90;;;;;;5025158;28;20133;-69
2022/01/29 01:17:51;;;;;;;9.73;4.20;;;2.50;99.90;;;;;;5017410;28;20211;-69
2022/01/29 01:20:17;;;;;;;9.32;3.53;;;2.50;99.90;;;;;;5022868;28;20056;-69
2022/01/29 01:22:42;;;;;;;8.35;4.07;;;2.50;99.90;;;;;;5038249;23;20029;-69
2022/01/29 01:25:09;;;;;;;7.82;3.40;;;2.50;99.90;;;;;;5040141;28;20125;-69
2022/01/29 01:27:37;;;;;;;6.25;2.88;;;2.50;99.90;;;;;;5040592;28;20025;-69
2022/01/29 01:30:04;;;;;;;7.65;3.40;;;2.50;99.90;;;;;;5056369;28;20022;-68
2022/01/29 01:32:33;;;;;;;6.65;3.17;;;2.50;99.90;;;;;;5053867;28;20397;-69
2022/01/29 01:35:09;;;;;;;5.97;2.55;;;2.50;99.90;;;;;;5038605;28;20024;-69
2022/01/29 01:37:50;;;;;;;5.90;3.22;;;2.50;99.90;;;;;;5046425;28;20041;-69
2022/01/29 01:40:17;;;;;;;6.63;3.28;;;2.60;99.90;;;;;;5040414;28;20171;-68
2022/01/29 01:42:46;;;;;;;8.25;3.58;;;2.60;99.90;;;;;;5043814;28;20052;-69
2022/01/29 01:45:11;;;;;;;13.32;5.63;;;2.60;99.90;;;;;;5044052;28;20521;-69
2022/01/29 01:47:37;;;;;;;14.52;6.57;;;2.60;99.90;;;;;;5042742;28;20079;-69
2022/01/29 01:50:11;;;;;;;17.73;8.80;;;2.60;99.90;;;;;;5044103;28;20718;-69
2022/01/29 01:52:37;;;;;;;16.08;7.88;;;2.60;99.90;;;;;;5046324;28;20024;-69
2022/01/29 01:55:03;;;;;;;19.27;8.40;;;2.60;99.90;;;;;;5041380;28;20028;-69
2022/01/29 01:57:28;;;;;;;17.75;8.23;;;2.60;99.90;;;;;;5043724;28;20115;-69
2022/01/29 01:59:57;;;;;;;13.93;7.68;;;2.60;99.90;;;;;;5040441;28;20099;-69
2022/01/29 02:02:23;;;;;;;17.10;7.97;;;2.50;99.90;;;;;;5045265;28;20035;-69
2022/01/29 02:04:49;;;;;;;16.60;8.32;;;2.50;99.90;;;;;;5041919;28;20028;-69
2022/01/29 02:07:15;;;;;;;18.05;7.97;;;2.50;99.90;;;;;;5040912;28;20074;-69
2022/01/29 02:09:44;;;;;;;18.27;7.05;;;2.50;99.90;;;;;;5048864;28;20381;-69
2022/01/29 02:12:11;;;;;;;13.07;7.28;;;2.50;99.90;;;;;;5049030;28;20021;-69
2022/01/29 02:14:40;;;;;;;12.55;6.43;;;2.50;99.90;;;;;;5047994;28;20091;-69
2022/01/29 02:17:07;;;;;;;15.93;7.43;;;2.50;99.90;;;;;;5046139;28;20021;-69
2022/01/29 02:19:33;;;;;;;11.52;6.25;;;2.40;99.90;;;;;;5043257;28;20025;-69
2022/01/29 02:21:59;;;;;;;13.15;6.47;;;2.40;99.90;;;;;;5045330;28;20035;-68
2022/01/29 02:24:28;;;;;;;12.23;6.90;;;2.40;99.90;;;;;;5038347;28;20738;-68
2022/01/29 02:26:54;;;;;;;13.13;6.13;;;2.50;99.90;;;;;;5045854;28;20021;-68
2022/01/29 02:29:20;;;;;;;14.00;6.28;;;2.40;99.90;;;;;;5042850;28;20019;-68
2022/01/29 02:31:55;;;;;;;12.40;6.40;;;2.40;99.90;;;;;;5043716;28;20037;-71
2022/01/29 02:34:20;;;;;;;10.50;6.05;;;2.40;99.90;;;;;;5047076;28;20082;-71
2022/01/29 02:36:51;;;;;;;13.20;6.45;;;2.40;99.90;;;;;;5048629;28;20025;-68
2022/01/29 02:39:18;;;;;;;11.35;5.95;;;2.40;99.90;;;;;;5044295;28;20104;-68
2022/01/29 02:41:45;;;;;;;12.77;6.25;;;2.40;99.90;;;;;;5045950;28;20533;-68
2022/01/29 02:44:15;;;;;;;9.68;4.93;;;2.40;99.90;;;;;;5044753;28;20048;-68
2022/01/29 02:49:17;;;;;;;11.02;5.30;;;2.30;99.90;;;;;;5046661;28;20041;-68
2022/01/29 02:51:48;;;;;;;10.98;5.50;;;2.30;99.90;;;;;;5046145;28;20436;-68
2022/01/29 02:54:14;;;;;;;8.95;4.60;;;2.30;99.90;;;;;;5061003;28;20028;-68
2022/01/29 02:56:40;;;;;;;10.70;5.57;;;2.20;99.90;;;;;;5045193;28;20580;-68
2022/01/29 02:59:09;;;;;;;9.05;4.80;;;2.30;99.90;;;;;;5045854;28;20473;-68
2022/01/29 03:01:38;;;;;;;9.93;4.72;;;2.30;99.90;;;;;;5048274;28;20474;-68
2022/01/29 03:04:10;;;;;;;10.73;4.90;;;2.30;99.90;;;;;;5045770;28;20478;-70
2022/01/29 03:06:36;;;;;;;7.78;4.18;;;2.20;99.90;;;;;;5044159;28;20087;-70
2022/01/29 03:09:05;;;;;;;9.77;4.38;;;2.20;99.90;;;;;;5039501;28;20024;-69
2022/01/29 03:11:31;;;;;;;7.25;4.03;;;2.20;99.90;;;;;;5047464;28;20096;-68
2022/01/29 03:13:57;;;;;;;11.45;4.20;;;2.20;99.90;;;;;;5041887;28;20105;-68
2022/01/29 03:16:22;;;;;;;9.95;4.88;;;2.20;99.90;;;;;;5048019;28;20040;-68
2022/01/29 03:18:48;;;;;;;6.90;3.72;;;2.10;99.90;;;;;;5046435;28;20029;-68
2022/01/29 03:21:17;;;;;;;10.40;4.50;;;2.10;99.90;;;;;;5044355;28;20039;-68
2022/01/29 03:23:42;;;;;;;9.70;3.95;;;2.10;99.90;;;;;;5044716;28;20029;-68
2022/01/29 03:26:08;;;;;;;7.07;4.05;;;2.10;99.90;;;;;;5045971;28;20520;-68
2022/01/29 03:28:34;;;;;;;11.68;4.35;;;2.10;99.90;;;;;;5043793;28;20029;-68
2022/01/29 03:31:03;;;;;;;9.95;4.00;;;2.10;99.90;;;;;;5049917;28;20505;-68
2022/01/29 03:33:31;;;;;;;8.93;4.43;;;2.20;99.90;;;;;;5045635;28;20022;-68
2022/01/29 03:35:57;;;;;;;10.40;4.18;;;2.20;99.90;;;;;;5045857;28;20470;-68
2022/01/29 03:38:24;;;;;;;7.90;4.43;;;2.20;99.90;;;;;;5042411;28;20082;-69
2022/01/29 03:40:50;;;;;;;9.15;4.45;;;2.20;99.90;;;;;;5045774;28;20021;-68
2022/01/29 03:43:25;;;;;;;11.55;4.15;;;2.30;99.90;;;;;;5045402;28;20029;-68
2022/01/29 03:45:51;;;;;;;9.80;4.65;;;2.20;99.90;;;;;;5047955;28;20029;-68
2022/01/29 03:48:17;;;;;;;7.88;3.92;;;2.20;99.90;;;;;;5045820;28;20489;-68
2022/01/29 03:50:46;;;;;;;9.70;4.60;;;2.30;99.90;;;;;;5045259;28;20029;-68
2022/01/29 03:53:11;;;;;;;10.95;3.72;;;2.20;99.90;;;;;;5042777;28;20029;-68
2022/01/29 03:55:40;;;;;;;10.13;4.28;;;2.20;99.90;;;;;;5045358;28;20028;-68
2022/01/29 03:58:06;;;;;;;9.30;3.55;;;2.30;99.90;;;;;;5046657;28;20650;-68
2022/01/29 04:00:34;;;;;;;6.50;3.25;;;2.20;99.90;;;;;;5046612;28;20079;-68
2022/01/29 04:03:00;;;;;;;9.48;3.60;;;2.30;99.90;;;;;;5045962;28;20029;-68
2022/01/29 04:05:26;;;;;;;6.40;3.35;;;2.20;99.90;;;;;;5045677;28;20041;-68
2022/01/29 04:07:55;;;;;;;7.68;3.63;;;2.20;99.90;;;;;;5044303;28;20025;-68
2022/01/29 04:10:22;;;;;;;6.97;3.00;;;2.30;99.90;;;;;;5040218;28;20032;-68
2022/01/29 04:12:51;;;;;;;7.75;3.28;;;2.30;99.90;;;;;;5048392;28;20099;-67
2022/01/29 04:15:17;;;;;;;6.40;3.20;;;2.30;99.90;;;;;;5046152;28;20029;-70
2022/01/29 04:17:42;;;;;;;6.55;3.38;;;2.30;99.90;;;;;;5044918;28;20024;-69
2022/01/29 04:20:08;;;;;;;6.70;3.28;;;2.40;99.90;;;;;;5042676;28;20036;-68
2022/01/29 04:22:34;;;;;;;7.50;2.92;;;2.40;99.90;;;;;;5047122;28;20389;-68
2022/01/29 04:25:00;;;;;;;4.32;2.92;;;2.40;99.90;;;;;;5046694;28;20043;-67
2022/01/29 04:27:39;;;;;;;7.90;3.47;;;2.40;99.90;;;;;;5041888;28;20025;-68
2022/01/29 04:30:11;;;;;;;6.45;3.22;;;2.40;99.90;;;;;;5046931;28;20359;-68
2022/01/29 04:35:12;;;;;;;5.75;2.72;;;2.40;99.90;;;;;;5046619;28;20042;-68
2022/01/29 04:37:40;;;;;;;6.68;3.03;;;2.50;99.90;;;;;;5042741;28;20087;-67
2022/01/29 04:40:09;;;;;;;5.78;2.63;;;2.50;99.90;;;;;;5042489;28;20030;-67
2022/01/29 04:42:35;;;;;;;5.13;2.65;;;2.50;99.90;;;;;;5045422;28;20079;-67
2022/01/29 04:45:01;;;;;;;4.68;2.40;;;2.50;99.90;;;;;;5046219;28;20033;-67
2022/01/29 04:47:26;;;;;;;6.03;3.10;;;2.50;99.90;;;;;;5043991;28;20043;-68
2022/01/29 04:49:52;;;;;;;7.28;3.15;;;2.50;99.90;;;;;;5043336;28;20033;-68
2022/01/29 04:52:18;;;;;;;6.15;2.50;;;2.50;99.90;;;;;;5039949;28;20021;-69
2022/01/29 04:54:43;;;;;;;6.55;3.35;;;2.50;99.90;;;;;;5043925;28;20551;-68
2022/01/29 04:57:09;;;;;;;6.00;2.38;;;2.50;99.90;;;;;;5043561;28;20029;-70
2022/01/29 04:59:34;;;;;;;5.75;2.60;;;2.50;99.90;;;;;;5034987;28;20030;-69
2022/01/29 05:02:00;;;;;;;5.85;2.55;;;2.50;99.90;;;;;;5048623;28;20436;-67
2022/01/29 05:04:38;;;;;;;5.70;2.50;;;2.50;99.90;;;;;;5038989;28;20681;-68
2022/01/29 05:07:04;;;;;;;6.38;3.00;;;2.50;99.90;;;;;;5045888;28;20107;-68
2022/01/29 05:09:30;;;;;;;5.25;3.17;;;2.50;99.90;;;;;;5041733;28;20477;-68
2022/01/29 05:11:57;;;;;;;5.88;2.78;;;2.60;99.90;;;;;;5046189;28;20083;-67
2022/01/29 05:14:34;;;;;;;5.95;3.08;;;2.60;99.90;;;;;;5039708;28;20047;-68
2022/01/29 05:28:05;;;;;;;6.10;2.63;;;2.60;99.90;;;;;;5044985;28;20032;-68
2022/01/29 05:30:31;;;;;;;8.82;2.83;;;2.70;99.90;;;;;;5040159;28;20051;-68
2022/01/29 05:32:56;;;;;;;4.60;1.98;;;2.70;99.90;;;;;;5043270;28;20021;-68
2022/01/29 05:35:22;;;;;;;7.07;2.80;;;2.70;99.90;;;;;;5045694;28;20435;-68
2022/01/29 05:37:51;;;;;;;6.30;3.17;;;2.70;99.90;;;;;;5042379;28;20029;-68
2022/01/29 05:40:18;;;;;;;6.07;2.55;;;2.70;99.90;;;;;;5044607;28;20032;-68
2022/01/29 05:42:43;;;;;;;6.45;1.85;;;2.80;99.90;;;;;;5040296;28;20021;-68
2022/01/29 05:45:09;;;;;;;5.28;2.15;;;2.80;99.90;;;;;;5043592;28;20030;-68
2022/01/29 05:47:39;;;;;;;2.85;1.27;;;2.80;99.90;;;;;;5048842;28;20117;-67
2022/01/29 05:50:05;;;;;;;5.90;1.85;;;2.90;99.90;;;;;;5043829;28;20061;-69
2022/01/29 05:52:32;;;;;;;4.70;2.17;;;2.90;99.90;;;;;;5043815;28;20021;-68
2022/01/29 05:54:58;;;;;;;4.18;2.03;;;3.00;99.90;;;;;;5047838;28;20116;-69
2022/01/29 05:57:26;;;;;;;2.67;1.40;;;3.00;99.90;;;;;;5051424;28;20108;-68
2022/01/29 05:59:52;;;;;;;6.05;1.98;;;3.00;99.90;;;;;;5047150;28;20397;-68
2022/01/29 06:02:19;;;;;;;5.72;1.80;;;3.10;99.90;;;;;;5047743;28;20028;-67
2022/01/29 06:04:44;;;;;;;5.40;1.95;;;3.10;99.90;;;;;;5050839;28;20043;-70
2022/01/29 06:07:10;;;;;;;8.45;2.58;;;3.10;99.90;;;;;;5044865;28;20021;-70
2022/01/29 06:09:36;;;;;;;3.88;1.40;;;3.10;99.90;;;;;;5049517;28;20025;-70
2022/01/29 06:12:08;;;;;;;4.32;1.35;;;3.10;99.90;;;;;;5043411;28;20021;-69
2022/01/29 06:14:33;;;;;;;3.42;1.63;;;3.10;99.90;;;;;;5048604;28;20040;-65
2022/01/29 06:17:02;;;;;;;5.07;1.48;;;3.20;99.90;;;;;;5046796;28;20021;-64
2022/01/29 06:19:28;;;;;;;4.10;1.45;;;3.50;99.90;;;;;;5041575;28;20504;-69
2022/01/29 06:21:53;;;;;;;2.40;1.33;;;3.70;99.90;;;;;;5043952;28;20025;-70
2022/01/29 06:24:19;;;;;;;3.20;1.42;;;3.70;99.90;;;;;;5047596;28;20029;-70
2022/01/29 06:26:45;;;;;;;3.38;1.52;;;3.70;99.90;;;;;;5050906;28;20036;-70
2022/01/29 06:29:10;;;;;;;3.28;1.27;;;3.70;99.90;;;;;;5047430;28;20025;-70
2022/01/29 06:31:36;;;;;;;1.65;1.08;;;3.60;99.90;;;;;;5048552;28;20125;-71
2022/01/29 06:34:01;;;;;;;1.77;1.15;;;3.60;99.90;;;;;;5065526;28;20355;-70
2022/01/29 06:36:27;;;;;;;5.00;1.17;;;3.60;99.90;;;;;;5049078;28;20169;-70
2022/01/29 06:38:53;;;;;;;2.47;1.00;;;3.60;99.90;;;;;;5051548;28;20037;-70
2022/01/29 06:41:18;;;;;;;3.22;1.20;;;3.60;99.90;;;;;;5047013;28;20390;-71
2022/01/29 06:43:44;;;;;;;4.40;1.20;;;3.60;99.90;;;;;;5053758;28;20033;-72
2022/01/29 06:46:09;;;;;;;3.17;1.30;;;3.60;99.90;;;;;;5046022;28;20031;-70
2022/01/29 06:48:35;;;;;;;3.08;1.05;;;3.60;99.90;;;;;;5050256;28;20033;-71
2022/01/29 06:51:01;;;;;;;4.25;1.00;;;3.60;99.90;;;;;;5046045;28;20479;-70
2022/01/29 06:53:26;;;;;;;3.17;1.20;;;3.60;99.90;;;;;;5046468;28;20044;-71
2022/01/29 06:55:52;;;;;;;6.43;1.35;;;3.60;99.90;;;;;;5049378;28;20016;-71
2022/01/29 06:58:18;;;;;;;2.15;1.33;;;3.70;99.90;;;;;;5039635;28;20059;-71
2022/01/29 07:00:43;;;;;;;2.00;0.90;;;3.70;99.90;;;;;;5043201;28;20108;-70
2022/01/29 07:03:09;;;;;;;2.95;1.17;;;3.70;99.90;;;;;;5060185;28;20531;-72
2022/01/29 07:05:34;;;;;;;2.60;1.02;;;3.70;99.90;;;;;;5046791;28;21046;-71
2022/01/29 07:08:00;;;;;;;3.72;1.15;;;3.70;99.90;;;;;;5043451;28;20108;-71
2022/01/29 07:10:26;;;;;;;2.47;1.35;;;3.70;99.90;;;;;;5047059;28;20120;-71
2022/01/29 07:12:52;;;;;;;3.17;1.08;;;3.80;99.90;;;;;;5043486;28;20441;-70
2022/01/29 07:15:17;;;;;;;2.40;1.02;;;3.80;99.90;;;;;;5042489;28;20029;-70
2022/01/29 07:17:43;;;;;;;2.42;1.40;;;3.80;99.90;;;;;;5043232;28;20037;-70
2022/01/29 07:20:09;;;;;;;2.78;1.45;;;3.80;99.90;;;;;;5048998;28;20401;-71
2022/01/29 07:22:35;;;;;;;3.85;1.30;;;3.80;99.90;;;;;;5046926;28;20068;-71
2022/01/29 07:25:04;;;;;;;2.20;1.30;;;3.80;99.90;;;;;;5041997;28;20438;-72
2022/01/29 07:27:29;;;;;;;2.17;1.27;;;3.80;99.90;;;;;;5062214;28;20048;-73
2022/01/29 07:29:55;;;;;;;3.25;1.30;;;3.80;99.90;;;;;;5042162;28;20386;-72
2022/01/29 07:32:21;;;;;;;2.05;1.00;;;3.90;99.90;;;;;;5047551;28;20394;-73
2022/01/29 07:34:46;;;;;;;4.90;1.60;;;3.90;99.90;;;;;;5052233;28;20025;-75
2022/01/29 07:37:12;;;;;;;5.10;1.48;;;3.90;99.90;;;;;;5051510;28;20036;-73
2022/01/29 07:39:37;;;;;;;5.93;1.92;;;3.90;99.90;;;;;;5054005;28;20029;-73
2022/01/29 07:42:03;;;;;;;3.70;1.75;;;3.90;99.90;;;;;;5051903;28;20033;-73
2022/01/29 07:44:29;;;;;;;4.35;2.08;;;3.90;99.90;;;;;;5045708;28;20029;-73
2022/01/29 07:46:55;;;;;;;6.55;1.50;;;3.90;99.90;;;;;;5040826;28;20029;-73
2022/01/29 07:49:20;;;;;;;3.55;1.52;;;4.00;99.90;;;;;;5045448;28;20435;-73
2022/01/29 07:51:46;;;;;;;4.60;1.40;;;3.90;99.90;;;;;;5044641;28;20056;-73
2022/01/29 07:54:12;;;;;;;4.40;1.50;;;4.00;99.90;;;;;;5048255;28;20068;-73
2022/01/29 07:56:37;;;;;;;3.83;1.70;;;3.90;99.90;;;;;;5043932;28;20083;-74
2022/01/29 07:59:03;;;;;;;5.40;1.73;;;3.90;99.90;;;;;;5049172;28;20100;-74
2022/01/29 08:01:29;;;;;;;2.55;1.30;;;3.90;99.90;;;;;;5051680;28;20037;-74
2022/01/29 08:03:54;;;;;;;6.55;2.38;;;3.90;99.90;;;;;;5051550;28;20032;-73
2022/01/29 08:06:23;;;;;;;3.65;1.60;;;3.90;99.90;;;;;;5049327;28;20082;-72
2022/01/29 08:08:50;;;;;;;3.00;1.70;;;3.90;99.90;;;;;;5049267;28;20033;-73
2022/01/29 08:11:16;;;;;;;6.68;1.80;;;3.90;99.90;;;;;;5047074;28;20635;-72
2022/01/29 08:13:43;;;;;;;6.22;1.55;;;3.90;99.90;;;;;;5042071;28;20017;-75
2022/01/29 08:16:09;;;;;;;4.72;1.55;;;4.00;99.90;;;;;;5046435;28;20028;-74
2022/01/29 08:18:35;;;;;;;4.10;1.90;;;4.00;99.90;;;;;;5048033;28;20383;-73
2022/01/29 08:21:00;;;;;;;5.10;1.25;;;4.00;99.90;;;;;;5047501;28;20031;-73
2022/01/29 08:23:26;;;;;;;5.15;1.60;;;4.00;99.90;;;;;;5041838;28;20457;-72
2022/01/29 08:25:52;;;;;;;3.67;1.90;;;4.10;99.90;;;;;;5045800;28;20064;-72
2022/01/29 08:28:17;;;;;;;8.13;1.98;;;4.10;99.90;;;;;;5031242;28;20064;-72
2022/01/29 08:30:43;;;;;;;4.18;1.63;;;4.20;99.90;;;;;;5038117;28;20031;-72
2022/01/29 08:33:11;;;;;;;5.28;2.30;;;4.20;99.90;;;;;;5041253;28;20382;-73
2022/01/29 08:35:36;;;;;;;4.03;1.98;;;4.30;99.90;;;;;;5041541;28;20031;-72
2022/01/29 08:38:02;;;;;;;4.57;1.90;;;4.30;99.90;;;;;;5052903;28;20020;-72
2022/01/29 08:40:28;;;;;;;5.13;1.92;;;4.40;99.90;;;;;;5051018;28;20021;-72
2022/01/29 08:42:54;;;;;;;5.10;2.28;;;4.40;99.90;;;;;;5037419;28;20060;-73
2022/01/29 08:45:20;;;;;;;6.25;2.38;;;4.40;99.90;;;;;;5038599;28;20533;-72
2022/01/29 08:47:46;;;;;;;5.20;2.17;;;4.40;99.90;;;;;;5047563;28;20132;-71
2022/01/29 08:50:13;;;;;;;4.40;2.28;;;4.40;99.90;;;;;;5052085;28;20051;-72
2022/01/29 08:52:39;;;;;;;6.00;2.00;;;4.40;99.90;;;;;;5047358;28;20025;-71
2022/01/29 08:55:09;;;;;;;5.80;2.45;;;4.30;99.90;;;;;;5042473;28;20496;-72
2022/01/29 08:57:35;;;;;;;7.47;2.60;;;4.30;99.90;;;;;;5038213;28;20036;-72
2022/01/29 09:00:01;;;;;;;5.80;2.47;;;4.30;99.90;;;;;;5043075;28;20029;-72
2022/01/29 09:02:27;;;;;;;7.50;2.60;;;4.30;99.90;;;;;;5046408;28;20080;-72
2022/01/29 09:04:54;;;;;;;6.30;2.58;;;4.30;99.90;;;;;;5049177;28;20025;-72
2022/01/29 09:07:20;;;;;;;6.03;2.72;;;4.30;99.90;;;;;;5049102;28;20107;-72
2022/01/29 09:09:46;;;;;;;6.82;2.88;;;4.40;99.90;;;;;;5045936;28;20061;-72
2022/01/29 09:12:12;;;;;;;7.55;2.88;;;4.40;99.90;;;;;;5041961;28;20029;-73
2022/01/29 09:14:38;;;;;;;5.90;2.97;;;4.40;99.90;;;;;;5049024;28;20409;-73
2022/01/29 09:17:05;;;;;;;5.25;2.88;;;4.30;99.90;;;;;;5050978;28;20021;-73
2022/01/29 09:19:30;;;;;;;6.80;3.25;;;4.40;99.90;;;;;;5047847;28;20036;-73
2022/01/29 09:21:56;;;;;;;5.80;3.03;;;4.40;99.90;;;;;;5041849;28;20025;-73
2022/01/29 09:24:22;;;;;;;6.32;3.40;;;4.50;99.90;;;;;;5047560;28;20033;-72
2022/01/29 09:26:47;;;;;;;6.35;3.03;;;4.40;99.90;;;;;;5046195;28;20025;-72
2022/01/29 09:29:13;;;;;;;9.27;2.78;;;4.50;99.90;;;;;;5046285;28;20076;-72
2022/01/29 09:31:38;;;;;;;5.28;2.42;;;4.60;99.90;;;;;;5046337;28;20040;-72
2022/01/29 09:34:04;;;;;;;7.20;3.30;;;4.60;99.90;;;;;;5044700;28;20036;-72
2022/01/29 09:36:30;;;;;;;7.03;3.08;;;4.60;99.90;;;;;;5044868;28;20049;-72
2022/01/29 09:38:56;;;;;;;5.38;2.72;;;4.60;99.90;;;;;;5044058;28;20091;-73
2022/01/29 09:41:25;;;;;;;11.65;3.42;;;4.60;99.90;;;;;;5046809;28;20021;-72
2022/01/29 09:43:53;;;;;;;7.63;2.40;;;4.70;99.90;;;;;;5046212;28;20029;-72
2022/01/29 09:46:19;;;;;;;4.78;2.40;;;4.70;99.90;;;;;;5046307;28;20041;-72
2022/01/29 09:48:45;;;;;;;5.50;2.33;;;4.80;99.90;;;;;;5045166;28;20381;-72
2022/01/29 09:51:14;;;;;;;6.10;2.70;;;4.80;99.90;;;;;;5047897;28;20098;-72
2022/01/29 09:53:43;;;;;;;5.72;2.60;;;4.80;99.90;;;;;;5042018;28;20018;-73
2022/01/29 09:56:12;;;;;;;4.38;2.20;;;4.70;99.90;;;;;;5048828;28;20021;-72
2022/01/29 09:58:39;;;;;;;6.68;2.65;;;4.80;99.90;;;;;;5057042;28;20037;-73
2022/01/29 10:01:05;;;;;;;4.13;2.50;;;4.80;99.90;;;;;;5048335;28;20489;-73
2022/01/29 10:03:30;;;;;;;8.30;2.50;;;4.80;99.90;;;;;;5045963;28;20029;-72
2022/01/29 10:06:00;;;;;;;6.35;2.50;;;4.90;99.90;;;;;;5044706;28;20091;-73
2022/01/29 10:08:27;;;;;;;5.28;3.00;;;4.90;99.90;;;;;;5043339;28;20099;-73
2022/01/29 10:11:00;;;;;;;5.63;2.20;;;5.00;99.90;;;;;;5042506;28;20051;-72
2022/01/29 10:13:57;;;;;;;9.07;2.87;;;5.00;99.90;;;;;;5046007;28;20393;-72
2022/01/29 10:16:25;;;;;;;4.63;2.28;;;5.00;99.90;;;;;;5042165;28;20767;-72
2022/01/29 10:19:08;;;;;;;5.70;2.78;;;5.10;99.90;;;;;;5048131;28;20469;-72
2022/01/29 10:21:35;;;;;;;5.38;2.85;;;5.10;99.90;;;;;;5043369;28;20037;-72
2022/01/29 10:24:07;;;;;;;7.22;3.20;;;5.10;99.90;;;;;;5046794;28;20474;-72
2022/01/29 10:26:38;;;;;;;8.50;3.25;;;5.00;99.90;;;;;;5040866;28;20694;-72
2022/01/29 10:29:36;;;;;;;5.45;2.63;;;5.00;99.90;;;;;;5042230;28;20359;-72
2022/01/29 10:32:02;;;;;;;9.82;3.47;;;5.00;99.90;;;;;;5033876;28;20043;-72
2022/01/29 10:34:36;;;;;;;6.10;3.08;;;5.00;99.90;;;;;;5050619;28;20482;-72
2022/01/29 10:37:26;;;;;;;4.90;2.97;;;4.90;99.90;;;;;;5050337;28;20382;-72
2022/01/29 10:39:55;;;;;;;6.90;2.97;;;4.90;99.90;;;;;;5050248;28;20021;-72
2022/01/29 10:42:24;;;;;;;4.82;2.60;;;4.90;99.90;;;;;;5046684;28;20092;-71
2022/01/29 10:45:02;;;;;;;10.82;4.15;;;4.90;99.90;;;;;;5048872;28;20035;-71
2022/01/29 10:47:30;;;;;;;6.63;3.03;;;4.90;99.90;;;;;;5047919;28;20025;-72
2022/01/29 10:50:02;;;;;;;6.30;3.13;;;4.90;99.90;;;;;;5043315;28;20024;-72
2022/01/29 10:52:35;;;;;;;5.38;2.15;;;4.80;99.90;;;;;;5046530;28;20025;-72
2022/01/29 10:55:05;;;;;;;4.95;2.67;;;4.90;99.90;;;;;;5051376;28;20500;-72
2022/01/29 10:57:44;;;;;;;5.68;3.35;;;4.80;99.90;;;;;;5051744;28;20082;-72
2022/01/29 11:00:20;;;;;;;6.10;3.17;;;4.80;99.90;;;;;;5064402;28;20485;-72
2022/01/29 11:02:47;;;;;;;5.15;2.70;;;4.90;99.90;;;;;;5050595;28;20071;-73
2022/01/29 11:05:14;;;;;;;4.93;2.53;;;5.00;99.90;;;;;;5045980;28;20021;-72
2022/01/29 11:07:42;;;;;;;5.18;2.50;;;5.20;99.90;;;;;;5049044;28;20079;-73
2022/01/29 11:10:09;;;;;;;6.72;2.58;;;5.40;99.90;;;;;;5047591;28;20032;-73
2022/01/29 11:12:38;;;;;;;4.30;2.45;;;5.60;99.90;;;;;;5040543;28;20443;-73
2022/01/29 11:15:05;;;;;;;6.72;2.47;;;5.80;99.90;;;;;;5049478;28;20041;-73
2022/01/29 11:17:32;;;;;;;6.22;2.30;;;5.90;99.90;;;;;;5051237;28;20040;-72
2022/01/29 11:20:00;;;;;;;4.80;2.38;;;6.10;99.90;;;;;;5060620;28;20028;-73
2022/01/29 11:22:30;;;;;;;3.97;2.47;;;6.20;99.90;;;;;;5049904;28;20033;-73
2022/01/29 11:25:05;;;;;;;6.35;2.38;;;6.20;99.90;;;;;;5041042;28;20029;-73
2022/01/29 11:27:33;;;;;;;4.63;2.03;;;6.30;99.90;;;;;;5052009;28;20929;-73
2022/01/29 11:30:08;;;;;;;4.95;2.33;;;6.40;99.90;;;;;;5051804;28;20042;-73
2022/01/29 11:32:40;;;;;;;5.65;1.80;;;6.50;99.90;;;;;;5049356;28;20029;-73
2022/01/29 11:35:15;;;;;;;6.35;1.75;;;6.60;99.90;;;;;;5047780;28;20028;-73
2022/01/29 11:37:46;;;;;;;5.50;2.13;;;6.70;99.90;;;;;;5046697;28;20029;-74
2022/01/29 11:40:16;;;;;;;3.95;1.80;;;6.80;99.90;;;;;;5040166;28;20108;-73
2022/01/29 11:42:53;;;;;;;3.15;1.48;;;6.90;99.90;;;;;;5050942;28;20029;-73
2022/01/29 11:45:48;;;;;;;3.00;1.65;;;7.00;99.90;;;;;;5048686;28;20039;-73
2022/01/29 11:48:22;;;;;;;6.13;2.03;;;7.10;99.90;;;;;;5049076;28;20021;-73
2022/01/29 11:50:48;;;;;;;3.75;1.63;;;7.20;99.90;;;;;;5062759;28;20021;-73
2022/01/29 11:53:17;;;;;;;4.07;1.80;;;7.20;99.90;;;;;;5046637;28;20075;-73
2022/01/29 11:55:44;;;;;;;2.50;1.17;;;7.30;99.90;;;;;;5042355;28;20056;-75
2022/01/29 11:58:13;;;;;;;4.15;1.30;;;7.40;99.90;;;;;;5046498;28;20074;-74
2022/01/29 12:00:48;;;;;;;4.32;1.30;;;7.40;99.90;;;;;;5048234;28;20772;-74
2022/01/29 12:03:33;;;;;;;4.95;1.35;;;7.40;99.90;;;;;;5045998;28;20037;-74
2022/01/29 12:09:02;;;;;;;1.90;1.13;;;7.50;99.90;;;;;;5046426;28;20128;-74
2022/01/29 12:11:27;;;;;;;3.53;1.42;;;7.60;99.90;;;;;;5039789;28;20413;-74
2022/01/29 12:14:24;;;;;;;3.00;1.25;;;7.70;99.90;;;;;;5048392;28;20031;-73
2022/01/29 12:16:50;;;;;;;2.42;1.20;;;7.80;99.90;;;;;;5046324;28;20601;-73
2022/01/29 12:19:46;;;;;;;3.30;1.60;;;7.80;99.90;;;;;;5055588;28;20119;-73
2022/01/29 12:22:28;;;;;;;7.35;3.25;;;7.90;99.90;;;;;;5044308;28;20036;-75
2022/01/29 12:24:55;;;;;;;4.00;1.60;;;8.00;99.90;;;;;;5044967;28;20055;-73
2022/01/29 12:27:23;;;;;;;4.07;1.67;;;8.00;99.80;;;;;;5049556;28;20052;-74
2022/01/29 12:29:48;;;;;;;2.92;1.35;;;8.00;99.90;;;;;;5048637;28;20031;-74
2022/01/29 12:32:14;;;;;;;5.13;1.50;;;8.00;99.90;;;;;;5045861;28;20028;-72
2022/01/29 12:34:40;;;;;;;6.82;1.80;;;8.10;99.90;;;;;;5043875;28;20025;-73
2022/01/29 12:37:19;;;;;;;5.72;1.45;;;8.10;99.90;;;;;;5050976;28;20144;-73
2022/01/29 12:39:47;;;;;;;2.85;1.30;;;8.10;99.90;;;;;;5045612;28;20017;-72
2022/01/29 12:42:28;;;;;;;;;;;;;;;;;;;;;
2022/01/29 12:44:53;;;;;;;3.53;1.20;;;8.00;99.90;;;;;;5048454;28;20055;-75
2022/01/29 12:47:30;;;;;;;3.97;1.73;;;8.00;99.90;;;;;;5048438;28;20455;-76
2022/01/29 12:49:56;;;;;;;2.60;1.30;;;8.00;99.90;;;;;;5046603;28;20032;-76
2022/01/29 12:52:23;;;;;;;4.07;1.80;;;7.90;99.90;;;;;;5045659;28;20036;-74
2022/01/29 12:55:04;;;;;;;4.78;2.25;;;7.90;99.90;;;;;;5044804;28;20018;-75
2022/01/29 12:57:47;;;;;;;5.20;2.30;;;7.90;99.90;;;;;;5041496;28;20090;-74
2022/01/29 13:00:18;;;;;;;7.43;2.15;;;8.00;99.90;;;;;;5041237;28;20532;-73
2022/01/29 13:02:44;;;;;;;3.78;1.35;;;8.00;99.90;;;;;;5047055;28;20021;-74
2022/01/29 13:05:11;;;;;;;2.47;1.33;;;8.00;99.90;;;;;;5047552;28;20045;-75
2022/01/29 13:07:38;;;;;;;1.90;1.10;;;8.00;99.90;;;;;;5042589;28;20737;-74
2022/01/29 13:10:05;;;;;;;2.45;0.85;;;8.00;99.90;;;;;;5036285;28;20025;-72
2022/01/29 13:12:44;;;;;;;3.08;1.58;;;8.10;99.90;;;;;;5041151;28;20564;-74
2022/01/29 13:15:11;;;;;;;4.00;2.22;;;8.10;99.90;;;;;;5045108;28;20048;-74
2022/01/29 13:17:42;;;;;;;3.50;1.65;;;8.20;99.90;;;;;;5041900;28;20033;-75
2022/01/29 13:20:13;;;;;;;9.85;2.28;;;8.20;99.90;;;;;;5034522;28;20048;-74